createdAt,value
2017-05-10T00:00:46.257Z,19.91
2017-05-10T00:01:47.541Z,19.92
2017-05-10T00:02:48.828Z,19.88
2017-05-10T00:03:50.112Z,19.92
2017-05-10T00:04:51.393Z,19.88
2017-05-10T00:05:52.678Z,19.91
2017-05-10T00:06:53.962Z,19.88
2017-05-10T00:07:55.247Z,19.86
2017-05-10T00:08:56.529Z,19.85
2017-05-10T00:09:57.814Z,19.91
2017-05-10T00:10:59.099Z,19.82
2017-05-10T00:12:00.384Z,19.85
2017-05-10T00:13:01.667Z,19.85
2017-05-10T00:14:02.948Z,19.88
2017-05-10T00:15:04.234Z,19.88
2017-05-10T00:16:05.516Z,19.77
2017-05-10T00:17:06.802Z,19.89
2017-05-10T00:18:08.087Z,19.88
2017-05-10T00:19:09.368Z,19.82
2017-05-10T00:20:10.652Z,19.86
2017-05-10T00:21:11.937Z,19.84
2017-05-10T00:22:13.220Z,19.82
2017-05-10T00:23:14.503Z,19.82
2017-05-10T00:24:15.788Z,19.79
2017-05-10T00:25:17.073Z,19.77
2017-05-10T00:26:18.355Z,19.82
2017-05-10T00:27:19.638Z,19.74
2017-05-10T00:28:20.923Z,19.77
2017-05-10T00:29:22.219Z,19.77
2017-05-10T00:30:23.503Z,19.71
2017-05-10T00:31:24.786Z,19.76
2017-05-10T00:32:26.070Z,19.73
2017-05-10T00:33:27.356Z,19.76
2017-05-10T00:34:28.640Z,19.73
2017-05-10T00:35:29.927Z,19.76
2017-05-10T00:36:31.208Z,19.71
2017-05-10T00:37:32.493Z,19.76
2017-05-10T00:38:33.779Z,19.79
2017-05-10T00:39:35.061Z,19.70
2017-05-10T00:40:36.346Z,19.81
2017-05-10T00:41:37.632Z,19.74
2017-05-10T00:42:38.919Z,19.73
2017-05-10T00:43:40.203Z,19.66
2017-05-10T00:44:41.493Z,19.59
2017-05-10T00:45:42.777Z,19.64
2017-05-10T00:46:44.062Z,19.74
2017-05-10T00:47:45.346Z,19.56
2017-05-10T00:48:46.629Z,19.64
2017-05-10T00:49:47.917Z,19.59
2017-05-10T00:50:49.202Z,19.67
2017-05-10T00:51:50.485Z,19.70
2017-05-10T00:52:51.774Z,19.59
2017-05-10T00:53:53.059Z,19.63
2017-05-10T00:54:54.345Z,19.64
2017-05-10T00:55:55.627Z,19.63
2017-05-10T00:56:56.912Z,19.62
2017-05-10T00:57:58.196Z,19.63
2017-05-10T00:58:59.482Z,19.66
2017-05-10T01:00:00.768Z,19.59
2017-05-10T01:01:02.054Z,19.64
2017-05-10T01:02:03.335Z,19.56
2017-05-10T01:03:04.622Z,19.55
2017-05-10T01:04:05.909Z,19.56
2017-05-10T01:05:07.189Z,19.52
2017-05-10T01:06:08.472Z,19.55
2017-05-10T01:07:09.756Z,19.56
2017-05-10T01:08:11.044Z,19.56
2017-05-10T01:09:12.326Z,19.55
2017-05-10T01:10:13.609Z,19.55
2017-05-10T01:11:14.893Z,19.55
2017-05-10T01:12:16.175Z,19.64
2017-05-10T01:13:17.459Z,19.62
2017-05-10T01:14:18.748Z,19.54
2017-05-10T01:15:20.026Z,19.58
2017-05-10T01:16:21.309Z,19.54
2017-05-10T01:17:22.593Z,19.58
2017-05-10T01:18:23.875Z,19.55
2017-05-10T01:19:25.163Z,19.54
2017-05-10T01:20:26.445Z,19.56
2017-05-10T01:21:27.728Z,19.58
2017-05-10T01:22:29.012Z,19.56
2017-05-10T01:23:30.297Z,19.56
2017-05-10T01:24:31.583Z,19.55
2017-05-10T01:25:32.865Z,19.58
2017-05-10T01:26:34.147Z,19.52
2017-05-10T01:27:35.431Z,19.56
2017-05-10T01:28:36.716Z,19.48
2017-05-10T01:29:38.000Z,19.56
2017-05-10T01:30:39.284Z,19.48
2017-05-10T01:31:40.569Z,19.56
2017-05-10T01:32:41.859Z,19.56
2017-05-10T01:33:43.143Z,19.56
2017-05-10T01:34:44.427Z,19.52
2017-05-10T01:35:45.711Z,19.49
2017-05-10T01:36:46.993Z,19.55
2017-05-10T01:37:48.279Z,19.41
2017-05-10T01:38:49.562Z,19.49
2017-05-10T01:39:50.848Z,19.47
2017-05-10T01:40:52.134Z,19.47
2017-05-10T01:41:53.419Z,19.52
2017-05-10T01:42:54.702Z,19.47
2017-05-10T01:43:55.986Z,19.44
2017-05-10T01:48:32.276Z,19.44
2017-05-10T01:49:33.562Z,19.39
2017-05-10T01:50:34.846Z,19.40
2017-05-10T01:51:36.129Z,19.40
2017-05-10T01:52:37.417Z,19.44
2017-05-10T01:53:38.709Z,19.39
2017-05-10T01:54:39.986Z,19.36
2017-05-10T01:55:41.272Z,19.40
2017-05-10T01:56:42.559Z,19.39
2017-05-10T01:57:43.842Z,19.41
2017-05-10T01:58:45.128Z,19.44
2017-05-10T01:59:46.414Z,19.44
2017-05-10T02:00:47.702Z,19.37
2017-05-10T02:01:48.983Z,19.47
2017-05-10T02:02:50.267Z,19.31
2017-05-10T02:03:51.552Z,19.44
2017-05-10T02:04:52.837Z,19.39
2017-05-10T02:05:54.124Z,19.41
2017-05-10T02:06:55.409Z,19.48
2017-05-10T02:07:56.695Z,19.36
2017-05-10T02:08:57.981Z,19.44
2017-05-10T02:09:59.268Z,19.41
2017-05-10T02:11:00.552Z,19.37
2017-05-10T02:12:01.835Z,19.30
2017-05-10T02:13:03.156Z,19.33
2017-05-10T02:14:04.408Z,19.33
2017-05-10T02:15:05.693Z,19.33
2017-05-10T02:16:06.978Z,19.31
2017-05-10T02:17:08.263Z,19.33
2017-05-10T02:18:09.548Z,19.29
2017-05-10T02:19:10.834Z,19.30
2017-05-10T02:20:12.119Z,19.29
2017-05-10T02:21:13.405Z,19.37
2017-05-10T02:22:14.693Z,19.39
2017-05-10T02:23:15.977Z,19.33
2017-05-10T02:24:17.262Z,19.31
2017-05-10T02:25:18.548Z,19.33
2017-05-10T02:26:19.835Z,19.36
2017-05-10T02:27:21.116Z,19.30
2017-05-10T02:28:22.406Z,19.27
2017-05-10T02:29:23.691Z,19.36
2017-05-10T02:30:24.979Z,19.33
2017-05-10T02:31:26.262Z,19.27
2017-05-10T02:32:27.550Z,19.37
2017-05-10T02:33:28.833Z,19.34
2017-05-10T02:34:30.120Z,19.30
2017-05-10T02:35:31.403Z,19.36
2017-05-10T02:36:32.688Z,19.27
2017-05-10T02:37:33.973Z,19.36
2017-05-10T02:38:35.260Z,19.27
2017-05-10T02:39:36.546Z,19.34
2017-05-10T02:40:37.832Z,19.30
2017-05-10T02:41:39.118Z,19.24
2017-05-10T02:42:40.401Z,19.22
2017-05-10T02:43:41.686Z,19.30
2017-05-10T02:44:42.968Z,19.26
2017-05-10T02:45:44.254Z,19.27
2017-05-10T02:46:45.540Z,19.30
2017-05-10T02:47:46.825Z,19.29
2017-05-10T02:48:48.110Z,19.34
2017-05-10T02:49:49.393Z,19.24
2017-05-10T02:50:50.679Z,19.22
2017-05-10T02:51:51.968Z,19.27
2017-05-10T02:52:53.253Z,19.27
2017-05-10T02:53:54.539Z,19.18
2017-05-10T02:54:55.822Z,19.22
2017-05-10T02:55:57.105Z,19.27
2017-05-10T02:56:58.390Z,19.24
2017-05-10T02:57:59.672Z,19.27
2017-05-10T02:59:00.958Z,19.27
2017-05-10T03:00:02.243Z,19.26
2017-05-10T03:01:03.524Z,19.11
2017-05-10T03:02:04.808Z,19.19
2017-05-10T03:03:06.127Z,19.14
2017-05-10T03:04:07.376Z,19.21
2017-05-10T03:05:08.658Z,19.19
2017-05-10T03:06:09.941Z,19.19
2017-05-10T03:07:11.225Z,19.26
2017-05-10T03:08:12.507Z,19.14
2017-05-10T03:09:13.792Z,19.14
2017-05-10T03:10:15.073Z,19.09
2017-05-10T03:11:16.359Z,19.22
2017-05-10T03:12:17.640Z,19.15
2017-05-10T03:13:18.923Z,19.24
2017-05-10T03:14:20.207Z,19.27
2017-05-10T03:15:21.490Z,19.14
2017-05-10T03:16:22.773Z,19.18
2017-05-10T03:17:24.057Z,19.16
2017-05-10T03:18:25.340Z,19.18
2017-05-10T03:19:26.623Z,19.14
2017-05-10T03:20:27.907Z,19.15
2017-05-10T03:21:29.190Z,19.16
2017-05-10T03:22:30.473Z,19.15
2017-05-10T03:23:31.758Z,19.18
2017-05-10T03:24:33.038Z,19.15
2017-05-10T03:25:34.324Z,19.09
2017-05-10T03:26:35.606Z,19.12
2017-05-10T03:27:36.893Z,19.11
2017-05-10T03:28:38.175Z,19.15
2017-05-10T03:29:39.460Z,19.09
2017-05-10T03:30:40.742Z,19.14
2017-05-10T03:31:42.027Z,19.09
2017-05-10T03:32:43.312Z,19.11
2017-05-10T03:33:44.594Z,19.14
2017-05-10T03:34:45.877Z,19.11
2017-05-10T03:35:47.161Z,19.09
2017-05-10T03:36:48.445Z,19.09
2017-05-10T03:37:49.728Z,19.11
2017-05-10T03:38:51.011Z,19.08
2017-05-10T03:39:52.295Z,19.08
2017-05-10T03:40:53.582Z,19.04
2017-05-10T03:41:54.866Z,19.08
2017-05-10T03:42:56.150Z,19.11
2017-05-10T03:43:57.433Z,19.09
2017-05-10T03:44:58.720Z,19.09
2017-05-10T03:46:00.002Z,19.09
2017-05-10T03:47:01.289Z,19.14
2017-05-10T03:48:02.572Z,19.15
2017-05-10T03:49:03.859Z,19.11
2017-05-10T03:50:05.144Z,19.18
2017-05-10T03:51:06.426Z,19.18
2017-05-10T03:52:07.711Z,19.18
2017-05-10T03:53:08.996Z,19.21
2017-05-10T03:54:10.281Z,19.29
2017-05-10T03:55:11.563Z,19.24
2017-05-10T03:56:12.882Z,19.37
2017-05-10T03:57:14.132Z,19.37
2017-05-10T03:58:15.417Z,19.33
2017-05-10T03:59:16.701Z,19.34
2017-05-10T04:00:17.986Z,19.39
2017-05-10T04:01:19.270Z,19.47
2017-05-10T04:02:20.554Z,19.39
2017-05-10T04:03:21.839Z,19.48
2017-05-10T04:04:23.124Z,19.49
2017-05-10T04:05:24.408Z,19.52
2017-05-10T04:06:25.694Z,19.58
2017-05-10T04:07:27.016Z,19.54
2017-05-10T04:08:28.279Z,19.67
2017-05-10T04:09:29.565Z,19.70
2017-05-10T04:10:30.853Z,19.77
2017-05-10T04:11:32.169Z,19.73
2017-05-10T04:12:33.458Z,19.89
2017-05-10T04:13:34.760Z,19.91
2017-05-10T04:14:36.054Z,19.82
2017-05-10T04:15:37.345Z,19.94
2017-05-10T04:16:38.632Z,19.84
2017-05-10T04:17:39.918Z,19.85
2017-05-10T04:18:41.208Z,19.92
2017-05-10T04:19:42.490Z,19.99
2017-05-10T04:20:45.410Z,20.02
2017-05-10T04:21:46.642Z,20.03
2017-05-10T04:22:47.970Z,20.09
2017-05-10T04:23:49.257Z,20.22
2017-05-10T04:24:50.541Z,20.18
2017-05-10T04:25:51.830Z,20.21
2017-05-10T04:26:53.126Z,20.18
2017-05-10T04:27:54.414Z,20.19
2017-05-10T04:28:55.699Z,20.22
2017-05-10T04:29:56.987Z,20.43
2017-05-10T04:30:58.309Z,20.48
2017-05-10T04:31:59.581Z,20.40
2017-05-10T04:33:00.870Z,20.43
2017-05-10T04:34:02.157Z,20.51
2017-05-10T04:35:03.447Z,20.65
2017-05-10T04:36:04.735Z,20.59
2017-05-10T04:37:06.034Z,20.62
2017-05-10T04:38:07.328Z,20.72
2017-05-10T04:39:08.609Z,20.72
2017-05-10T04:40:09.894Z,20.84
2017-05-10T04:41:11.183Z,20.96
2017-05-10T04:42:12.470Z,21.09
2017-05-10T04:43:13.759Z,21.15
2017-05-10T04:44:15.065Z,21.30
2017-05-10T04:45:16.354Z,21.40
2017-05-10T04:46:17.638Z,21.42
2017-05-10T04:47:18.929Z,21.46
2017-05-10T04:48:20.233Z,21.50
2017-05-10T04:49:21.519Z,21.60
2017-05-10T04:50:22.807Z,21.70
2017-05-10T04:51:24.094Z,21.62
2017-05-10T04:52:25.407Z,21.73
2017-05-10T04:53:26.870Z,21.93
2017-05-10T04:54:28.161Z,21.96
2017-05-10T04:55:29.491Z,21.98
2017-05-10T04:56:30.740Z,22.15
2017-05-10T04:57:32.029Z,22.29
2017-05-10T04:58:33.316Z,22.26
2017-05-10T04:59:34.631Z,22.25
2017-05-10T05:00:35.919Z,22.35
2017-05-10T05:01:37.208Z,22.47
2017-05-10T05:02:38.495Z,22.59
2017-05-10T05:03:39.786Z,22.48
2017-05-10T05:04:41.074Z,22.47
2017-05-10T05:05:42.361Z,22.75
2017-05-10T05:06:43.651Z,22.66
2017-05-10T05:07:44.940Z,22.33
2017-05-10T05:08:46.230Z,22.14
2017-05-10T05:09:47.517Z,22.10
2017-05-10T05:10:48.805Z,21.89
2017-05-10T05:11:50.098Z,21.75
2017-05-10T05:12:51.389Z,21.64
2017-05-10T05:13:52.672Z,21.66
2017-05-10T05:14:53.960Z,21.57
2017-05-10T05:15:55.267Z,21.52
2017-05-10T05:16:56.555Z,21.55
2017-05-10T05:17:57.844Z,21.50
2017-05-10T05:18:59.131Z,21.52
2017-05-10T05:20:00.419Z,21.50
2017-05-10T05:21:01.707Z,21.43
2017-05-10T05:22:02.993Z,21.43
2017-05-10T05:23:04.280Z,21.32
2017-05-10T05:24:05.569Z,21.30
2017-05-10T05:25:06.858Z,21.22
2017-05-10T05:26:08.240Z,21.25
2017-05-10T05:27:09.525Z,21.27
2017-05-10T05:28:10.812Z,21.20
2017-05-10T05:29:12.099Z,21.22
2017-05-10T05:30:13.391Z,21.17
2017-05-10T05:31:14.678Z,21.20
2017-05-10T05:32:15.965Z,21.24
2017-05-10T05:33:17.254Z,21.20
2017-05-10T05:34:18.542Z,21.14
2017-05-10T05:35:19.830Z,21.20
2017-05-10T05:36:21.119Z,21.18
2017-05-10T05:37:22.421Z,21.15
2017-05-10T05:38:23.709Z,21.22
2017-05-10T05:39:24.999Z,21.22
2017-05-10T05:40:26.287Z,21.25
2017-05-10T05:41:27.575Z,21.12
2017-05-10T05:42:28.865Z,21.17
2017-05-10T05:43:30.164Z,21.09
2017-05-10T05:44:31.452Z,21.12
2017-05-10T05:45:32.740Z,21.17
2017-05-10T05:46:34.029Z,21.12
2017-05-10T05:47:35.318Z,21.20
2017-05-10T05:48:36.604Z,21.11
2017-05-10T05:49:37.893Z,21.15
2017-05-10T05:50:39.180Z,21.09
2017-05-10T05:51:40.467Z,21.06
2017-05-10T05:52:41.759Z,21.06
2017-05-10T05:53:43.046Z,21.06
2017-05-10T05:54:44.334Z,21.05
2017-05-10T05:55:45.622Z,21.00
2017-05-10T05:56:46.910Z,21.05
2017-05-10T05:57:48.199Z,21.02
2017-05-10T05:58:49.484Z,21.02
2017-05-10T05:59:50.773Z,21.05
2017-05-10T06:00:52.059Z,21.03
2017-05-10T06:01:53.347Z,21.00
2017-05-10T06:02:54.638Z,21.02
2017-05-10T06:03:55.926Z,21.11
2017-05-10T06:04:57.214Z,21.15
2017-05-10T06:05:58.503Z,21.15
2017-05-10T06:06:59.792Z,21.11
2017-05-10T06:08:01.084Z,21.14
2017-05-10T06:09:02.373Z,21.18
2017-05-10T06:10:03.662Z,21.24
2017-05-10T06:11:04.947Z,21.27
2017-05-10T06:12:06.238Z,21.21
2017-05-10T06:13:07.524Z,21.18
2017-05-10T06:14:08.816Z,21.30
2017-05-10T06:15:10.103Z,21.29
2017-05-10T06:16:11.391Z,21.27
2017-05-10T06:17:12.687Z,21.29
2017-05-10T06:18:13.975Z,21.29
2017-05-10T06:19:15.262Z,21.29
2017-05-10T06:20:16.552Z,21.33
2017-05-10T06:21:17.839Z,21.39
2017-05-10T06:22:19.129Z,21.35
2017-05-10T06:23:20.415Z,21.30
2017-05-10T06:24:21.704Z,21.36
2017-05-10T06:25:22.990Z,21.15
2017-05-10T06:26:24.281Z,21.09
2017-05-10T06:27:25.569Z,20.99
2017-05-10T06:28:26.858Z,21.03
2017-05-10T06:29:28.147Z,21.12
2017-05-10T06:30:29.436Z,21.11
2017-05-10T06:31:30.728Z,21.15
2017-05-10T06:32:32.018Z,21.15
2017-05-10T06:33:33.306Z,21.21
2017-05-10T06:34:34.597Z,21.29
2017-05-10T06:35:35.883Z,21.27
2017-05-10T06:36:37.170Z,21.35
2017-05-10T06:37:38.460Z,21.32
2017-05-10T06:38:39.749Z,21.21
2017-05-10T06:39:41.037Z,21.20
2017-05-10T06:40:42.325Z,21.25
2017-05-10T06:41:43.616Z,21.22
2017-05-10T06:42:44.905Z,21.20
2017-05-10T06:43:46.195Z,21.18
2017-05-10T06:44:47.493Z,21.21
2017-05-10T06:45:48.782Z,21.20
2017-05-10T06:46:50.070Z,21.24
2017-05-10T06:47:51.361Z,21.24
2017-05-10T06:48:52.647Z,21.18
2017-05-10T06:49:56.119Z,21.30
2017-05-10T06:50:57.391Z,21.25
2017-05-10T06:51:58.681Z,21.21
2017-05-10T06:52:59.968Z,21.25
2017-05-10T06:54:01.257Z,21.25
2017-05-10T06:55:02.547Z,21.29
2017-05-10T06:56:03.837Z,21.27
2017-05-10T06:57:05.123Z,21.29
2017-05-10T06:58:06.412Z,21.33
2017-05-10T06:59:07.700Z,21.27
2017-05-10T07:00:08.989Z,21.29
2017-05-10T07:01:10.279Z,21.29
2017-05-10T07:02:11.568Z,21.33
2017-05-10T07:03:12.856Z,21.37
2017-05-10T07:04:14.144Z,21.27
2017-05-10T07:05:15.433Z,21.29
2017-05-10T07:06:16.725Z,21.33
2017-05-10T07:07:18.014Z,21.32
2017-05-10T07:08:19.301Z,21.36
2017-05-10T07:09:20.593Z,21.33
2017-05-10T07:10:21.880Z,21.33
2017-05-10T07:11:23.169Z,21.30
2017-05-10T07:12:24.456Z,21.33
2017-05-10T07:13:25.746Z,21.32
2017-05-10T07:14:27.034Z,21.29
2017-05-10T07:15:28.326Z,21.30
2017-05-10T07:16:29.615Z,21.27
2017-05-10T07:17:30.902Z,21.37
2017-05-10T07:18:32.191Z,21.25
2017-05-10T07:19:33.498Z,21.29
2017-05-10T07:20:34.786Z,21.29
2017-05-10T07:21:36.076Z,21.29
2017-05-10T07:22:37.366Z,21.36
2017-05-10T07:23:38.654Z,21.29
2017-05-10T07:24:39.943Z,21.37
2017-05-10T07:25:41.231Z,21.33
2017-05-10T07:26:42.516Z,21.35
2017-05-10T07:27:43.812Z,21.32
2017-05-10T07:28:45.101Z,21.42
2017-05-10T07:29:46.391Z,21.29
2017-05-10T07:30:47.682Z,21.32
2017-05-10T07:31:48.968Z,21.36
2017-05-10T07:32:50.258Z,21.27
2017-05-10T07:33:51.548Z,21.37
2017-05-10T07:34:52.837Z,21.36
2017-05-10T07:35:54.125Z,21.42
2017-05-10T07:36:55.412Z,21.35
2017-05-10T07:37:56.701Z,21.37
2017-05-10T07:38:57.994Z,21.33
2017-05-10T07:39:59.283Z,21.35
2017-05-10T07:41:00.570Z,21.36
2017-05-10T07:42:01.860Z,21.42
2017-05-10T07:43:03.146Z,21.35
2017-05-10T07:44:04.437Z,21.35
2017-05-10T07:45:05.725Z,21.36
2017-05-10T07:46:07.013Z,21.36
2017-05-10T07:47:08.305Z,21.43
2017-05-10T07:48:09.593Z,21.36
2017-05-10T07:49:10.886Z,21.40
2017-05-10T07:50:12.208Z,21.42
2017-05-10T07:51:13.462Z,21.37
2017-05-10T07:52:14.750Z,21.43
2017-05-10T07:53:16.038Z,21.43
2017-05-10T07:54:17.326Z,21.42
2017-05-10T07:55:18.614Z,21.37
2017-05-10T07:56:19.927Z,21.43
2017-05-10T07:57:21.213Z,21.40
2017-05-10T07:58:22.501Z,21.40
2017-05-10T07:59:23.792Z,21.37
2017-05-10T08:00:25.080Z,21.54
2017-05-10T08:01:26.369Z,21.46
2017-05-10T08:02:27.657Z,21.50
2017-05-10T08:03:28.946Z,21.50
2017-05-10T08:04:30.236Z,21.50
2017-05-10T08:05:31.546Z,21.50
2017-05-10T08:06:32.834Z,21.50
2017-05-10T08:07:34.123Z,21.57
2017-05-10T08:08:35.411Z,21.51
2017-05-10T08:09:36.701Z,21.51
2017-05-10T08:10:37.989Z,21.57
2017-05-10T08:11:39.279Z,21.46
2017-05-10T08:12:40.567Z,21.52
2017-05-10T08:13:41.855Z,21.62
2017-05-10T08:14:43.144Z,21.52
2017-05-10T08:15:44.435Z,21.52
2017-05-10T08:16:45.723Z,21.54
2017-05-10T08:17:47.012Z,21.52
2017-05-10T08:18:48.301Z,21.54
2017-05-10T08:19:49.591Z,21.55
2017-05-10T08:20:50.881Z,21.51
2017-05-10T08:21:52.170Z,21.54
2017-05-10T08:22:53.457Z,21.51
2017-05-10T08:23:54.746Z,21.55
2017-05-10T08:24:56.037Z,21.54
2017-05-10T08:25:57.330Z,21.54
2017-05-10T08:26:58.613Z,21.55
2017-05-10T08:27:59.901Z,21.51
2017-05-10T08:29:01.192Z,21.55
2017-05-10T08:30:02.480Z,21.57
2017-05-10T08:31:03.769Z,21.54
2017-05-10T08:32:05.058Z,21.54
2017-05-10T08:33:06.361Z,21.51
2017-05-10T08:34:07.656Z,21.54
2017-05-10T08:35:08.937Z,21.55
2017-05-10T08:36:10.230Z,21.54
2017-05-10T08:37:11.515Z,21.58
2017-05-10T08:38:12.803Z,21.51
2017-05-10T08:39:14.094Z,21.54
2017-05-10T08:40:15.382Z,21.58
2017-05-10T08:41:16.673Z,21.55
2017-05-10T08:42:17.958Z,21.58
2017-05-10T08:43:19.250Z,21.60
2017-05-10T08:44:20.542Z,21.57
2017-05-10T08:45:21.838Z,21.55
2017-05-10T08:46:23.123Z,21.60
2017-05-10T08:47:24.412Z,21.66
2017-05-10T08:48:25.700Z,21.52
2017-05-10T08:49:27.054Z,21.62
2017-05-10T08:50:28.301Z,21.58
2017-05-10T08:51:29.591Z,21.57
2017-05-10T08:52:30.882Z,21.60
2017-05-10T08:53:32.172Z,21.66
2017-05-10T08:54:33.461Z,21.51
2017-05-10T08:55:34.747Z,21.61
2017-05-10T08:56:36.040Z,21.61
2017-05-10T08:57:37.329Z,21.66
2017-05-10T08:58:38.622Z,21.67
2017-05-10T08:59:39.911Z,21.69
2017-05-10T09:00:41.223Z,21.66
2017-05-10T09:01:42.488Z,21.61
2017-05-10T09:02:43.779Z,21.61
2017-05-10T09:03:45.068Z,21.69
2017-05-10T09:04:46.354Z,21.66
2017-05-10T09:05:47.644Z,21.66
2017-05-10T09:06:48.935Z,21.60
2017-05-10T09:07:50.220Z,21.66
2017-05-10T09:08:51.511Z,21.66
2017-05-10T09:09:52.800Z,21.73
2017-05-10T09:10:54.087Z,21.70
2017-05-10T09:11:55.505Z,21.76
2017-05-10T09:12:56.788Z,21.72
2017-05-10T09:13:58.079Z,21.76
2017-05-10T09:14:59.368Z,21.79
2017-05-10T09:16:00.654Z,21.75
2017-05-10T09:17:01.945Z,21.75
2017-05-10T09:18:03.235Z,21.70
2017-05-10T09:19:04.519Z,21.70
2017-05-10T09:20:05.811Z,21.75
2017-05-10T09:21:07.100Z,21.82
2017-05-10T09:22:08.391Z,21.79
2017-05-10T09:23:09.680Z,21.82
2017-05-10T09:24:10.973Z,21.72
2017-05-10T09:25:12.263Z,21.75
2017-05-10T09:26:13.544Z,21.73
2017-05-10T09:27:14.835Z,21.80
2017-05-10T09:28:16.122Z,21.82
2017-05-10T09:29:17.414Z,21.75
2017-05-10T09:30:18.703Z,21.76
2017-05-10T09:31:19.992Z,21.91
2017-05-10T09:32:21.304Z,21.87
2017-05-10T09:33:22.587Z,21.87
2017-05-10T09:34:23.874Z,21.72
2017-05-10T09:35:25.261Z,21.85
2017-05-10T09:36:26.547Z,21.83
2017-05-10T09:37:27.835Z,21.87
2017-05-10T09:38:29.125Z,21.92
2017-05-10T09:39:30.413Z,21.87
2017-05-10T09:40:31.701Z,21.93
2017-05-10T09:41:32.991Z,21.89
2017-05-10T09:42:34.277Z,21.92
2017-05-10T09:43:35.571Z,21.82
2017-05-10T09:44:36.857Z,21.87
2017-05-10T09:45:38.147Z,21.93
2017-05-10T09:46:39.431Z,21.87
2017-05-10T09:47:40.725Z,21.89
2017-05-10T09:48:42.013Z,21.87
2017-05-10T09:49:43.300Z,21.92
2017-05-10T09:50:44.587Z,21.96
2017-05-10T09:51:45.877Z,21.85
2017-05-10T09:52:47.167Z,21.87
2017-05-10T09:53:48.458Z,21.92
2017-05-10T09:54:49.747Z,21.92
2017-05-10T09:55:51.035Z,21.95
2017-05-10T09:56:52.354Z,21.92
2017-05-10T09:57:53.611Z,21.98
2017-05-10T09:58:54.900Z,21.96
2017-05-10T09:59:56.189Z,21.92
2017-05-10T10:00:57.478Z,21.96
2017-05-10T10:01:58.768Z,21.99
2017-05-10T10:03:00.057Z,22.00
2017-05-10T10:04:01.345Z,21.93
2017-05-10T10:05:02.633Z,21.91
2017-05-10T10:06:03.924Z,22.02
2017-05-10T10:07:05.213Z,21.96
2017-05-10T10:08:06.512Z,21.96
2017-05-10T10:09:07.798Z,21.92
2017-05-10T10:10:09.103Z,22.04
2017-05-10T10:11:10.376Z,21.96
2017-05-10T10:12:11.668Z,22.06
2017-05-10T10:13:12.956Z,21.96
2017-05-10T10:14:14.247Z,21.99
2017-05-10T10:15:15.539Z,22.06
2017-05-10T10:16:16.827Z,22.10
2017-05-10T10:17:18.114Z,22.04
2017-05-10T10:18:19.404Z,22.07
2017-05-10T10:19:20.691Z,22.11
2017-05-10T10:20:21.980Z,22.07
2017-05-10T10:21:23.270Z,22.06
2017-05-10T10:22:24.560Z,22.11
2017-05-10T10:23:25.847Z,22.07
2017-05-10T10:24:27.138Z,22.04
2017-05-10T10:25:28.427Z,22.14
2017-05-10T10:26:29.718Z,22.11
2017-05-10T10:27:31.005Z,22.14
2017-05-10T10:28:32.296Z,22.11
2017-05-10T10:29:33.586Z,22.14
2017-05-10T10:30:34.875Z,22.20
2017-05-10T10:31:36.163Z,22.17
2017-05-10T10:32:37.453Z,22.11
2017-05-10T10:33:38.741Z,22.20
2017-05-10T10:34:40.032Z,22.23
2017-05-10T10:35:41.321Z,22.22
2017-05-10T10:36:42.609Z,22.22
2017-05-10T10:37:43.898Z,22.14
2017-05-10T10:38:45.190Z,22.23
2017-05-10T10:39:46.482Z,22.29
2017-05-10T10:40:47.771Z,22.17
2017-05-10T10:41:49.097Z,22.25
2017-05-10T10:42:50.347Z,22.28
2017-05-10T10:43:51.638Z,22.26
2017-05-10T10:44:52.927Z,22.17
2017-05-10T10:45:54.215Z,22.20
2017-05-10T10:46:55.506Z,22.26
2017-05-10T10:47:56.793Z,22.17
2017-05-10T10:48:58.102Z,22.22
2017-05-10T10:49:59.393Z,22.25
2017-05-10T10:51:00.682Z,22.25
2017-05-10T10:52:01.982Z,22.20
2017-05-10T10:53:03.266Z,22.23
2017-05-10T10:54:04.556Z,22.23
2017-05-10T10:55:05.847Z,22.13
2017-05-10T10:56:07.135Z,22.15
2017-05-10T10:57:08.423Z,22.18
2017-05-10T10:58:09.712Z,22.18
2017-05-10T10:59:10.998Z,22.18
2017-05-10T11:00:12.289Z,22.22
2017-05-10T11:01:13.579Z,22.30
2017-05-10T11:02:14.867Z,22.25
2017-05-10T11:03:16.156Z,22.15
2017-05-10T11:04:17.446Z,22.26
2017-05-10T11:05:18.737Z,22.14
2017-05-10T11:06:20.024Z,22.18
2017-05-10T11:07:21.314Z,22.26
2017-05-10T11:08:22.604Z,22.26
2017-05-10T11:09:23.893Z,22.22
2017-05-10T11:10:25.185Z,22.23
2017-05-10T11:11:26.470Z,22.25
2017-05-10T11:12:27.760Z,22.23
2017-05-10T11:13:29.049Z,22.30
2017-05-10T11:14:30.337Z,22.33
2017-05-10T11:15:31.625Z,22.29
2017-05-10T11:16:32.916Z,22.25
2017-05-10T11:17:34.205Z,22.29
2017-05-10T11:18:35.493Z,22.32
2017-05-10T11:19:36.783Z,22.25
2017-05-10T11:20:38.071Z,22.30
2017-05-10T11:21:39.361Z,22.28
2017-05-10T11:22:40.651Z,22.36
2017-05-10T11:23:41.940Z,22.35
2017-05-10T11:24:43.231Z,22.29
2017-05-10T11:25:44.519Z,22.30
2017-05-10T11:26:45.807Z,22.33
2017-05-10T11:27:47.098Z,22.30
2017-05-10T11:28:48.387Z,22.32
2017-05-10T11:29:49.677Z,22.32
2017-05-10T11:30:50.965Z,22.29
2017-05-10T11:31:52.255Z,22.25
2017-05-10T11:32:53.543Z,22.29
2017-05-10T11:33:54.831Z,22.29
2017-05-10T11:34:56.116Z,22.33
2017-05-10T11:35:57.409Z,22.39
2017-05-10T11:36:58.699Z,22.41
2017-05-10T11:37:59.990Z,22.45
2017-05-10T11:39:01.278Z,22.45
2017-05-10T11:40:02.567Z,22.43
2017-05-10T11:41:03.854Z,22.47
2017-05-10T11:42:05.145Z,22.35
2017-05-10T11:43:06.504Z,22.38
2017-05-10T11:44:07.791Z,22.43
2017-05-10T11:45:09.081Z,22.50
2017-05-10T11:46:10.370Z,22.50
2017-05-10T11:47:11.660Z,22.36
2017-05-10T11:48:12.949Z,22.53
2017-05-10T11:49:14.239Z,22.50
2017-05-10T11:50:15.532Z,22.45
2017-05-10T11:51:16.816Z,22.50
2017-05-10T11:52:18.106Z,22.48
2017-05-10T11:53:19.396Z,22.43
2017-05-10T11:54:20.685Z,22.48
2017-05-10T11:55:21.976Z,22.50
2017-05-10T11:56:23.265Z,22.48
2017-05-10T11:57:24.556Z,22.50
2017-05-10T11:58:25.842Z,22.48
2017-05-10T11:59:27.133Z,22.53
2017-05-10T12:00:28.426Z,22.53
2017-05-10T12:01:29.710Z,22.44
2017-05-10T12:02:30.998Z,22.54
2017-05-10T12:03:32.289Z,22.53
2017-05-10T12:04:33.577Z,22.48
2017-05-10T12:05:34.867Z,22.51
2017-05-10T12:06:36.157Z,22.51
2017-05-10T12:07:37.446Z,22.45
2017-05-10T12:08:38.736Z,22.44
2017-05-10T12:09:40.027Z,22.47
2017-05-10T12:10:41.313Z,22.41
2017-05-10T12:11:42.603Z,22.45
2017-05-10T12:12:43.893Z,22.43
2017-05-10T12:13:45.182Z,22.38
2017-05-10T12:14:46.473Z,22.47
2017-05-10T12:15:47.759Z,22.47
2017-05-10T12:16:49.049Z,22.48
2017-05-10T12:17:50.337Z,22.50
2017-05-10T12:18:51.626Z,22.45
2017-05-10T12:19:52.916Z,22.48
2017-05-10T12:20:54.205Z,22.43
2017-05-10T12:21:55.495Z,22.43
2017-05-10T12:22:56.792Z,22.48
2017-05-10T12:23:58.080Z,22.44
2017-05-10T12:24:59.368Z,22.48
2017-05-10T12:26:00.657Z,22.50
2017-05-10T12:27:01.950Z,22.45
2017-05-10T12:28:03.233Z,22.47
2017-05-10T12:29:04.524Z,22.50
2017-05-10T12:30:05.814Z,22.45
2017-05-10T12:31:07.102Z,22.44
2017-05-10T12:32:08.390Z,22.48
2017-05-10T12:33:09.678Z,22.47
2017-05-10T12:34:10.969Z,22.43
2017-05-10T12:35:12.257Z,22.45
2017-05-10T12:36:13.547Z,22.47
2017-05-10T12:37:14.838Z,22.48
2017-05-10T12:38:16.128Z,22.44
2017-05-10T12:39:17.416Z,22.43
2017-05-10T12:40:18.704Z,22.43
2017-05-10T12:41:19.994Z,22.41
2017-05-10T12:42:21.281Z,22.45
2017-05-10T12:43:22.571Z,22.43
2017-05-10T12:44:23.860Z,22.43
2017-05-10T12:45:25.150Z,22.50
2017-05-10T12:46:26.440Z,22.50
2017-05-10T12:47:27.732Z,22.47
2017-05-10T12:48:29.018Z,22.41
2017-05-10T12:49:30.307Z,22.43
2017-05-10T12:50:31.595Z,22.43
2017-05-10T12:51:32.884Z,22.51
2017-05-10T12:52:34.174Z,22.48
2017-05-10T12:53:35.466Z,22.50
2017-05-10T12:54:36.760Z,22.45
2017-05-10T12:55:38.054Z,22.53
2017-05-10T12:56:39.349Z,22.38
2017-05-10T12:57:40.635Z,22.50
2017-05-10T12:58:41.929Z,22.55
2017-05-10T12:59:43.232Z,22.48
2017-05-10T13:00:44.520Z,22.54
2017-05-10T13:01:45.810Z,22.51
2017-05-10T13:02:47.098Z,22.50
2017-05-10T13:03:48.390Z,22.51
2017-05-10T13:04:49.681Z,22.54
2017-05-10T13:05:50.970Z,22.50
2017-05-10T13:06:52.328Z,22.53
2017-05-10T13:07:53.623Z,22.53
2017-05-10T13:08:54.910Z,22.53
2017-05-10T13:09:56.198Z,22.54
2017-05-10T13:10:57.485Z,22.48
2017-05-10T13:11:58.777Z,22.45
2017-05-10T13:13:00.065Z,22.50